createdAt,value
2022-09-20T00:00:40.701Z,95.65
2022-09-20T00:03:07.850Z,95.65
2022-09-20T00:05:34.722Z,95.51
2022-09-20T00:08:01.964Z,95.68
2022-09-20T00:10:28.744Z,95.80
2022-09-20T00:12:55.225Z,96.17
2022-09-20T00:15:23.178Z,96.26
2022-09-20T00:17:49.671Z,96.56
2022-09-20T00:20:16.364Z,96.67
2022-09-20T00:22:42.826Z,96.75
2022-09-20T00:25:09.637Z,96.80
2022-09-20T00:27:36.136Z,96.95
2022-09-20T00:30:02.912Z,96.84
2022-09-20T00:32:31.142Z,96.33
2022-09-20T00:34:57.636Z,96.82
2022-09-20T00:37:24.143Z,97.09
2022-09-20T00:39:50.597Z,96.74
2022-09-20T00:42:17.073Z,97.09
2022-09-20T00:44:50.925Z,96.63
2022-09-20T00:47:24.246Z,96.67
2022-09-20T00:49:56.138Z,96.45
2022-09-20T00:52:22.904Z,96.35
2022-09-20T00:54:49.650Z,96.39
2022-09-20T00:57:16.240Z,96.43
2022-09-20T00:59:45.877Z,96.25
2022-09-20T01:02:16.544Z,96.56
2022-09-20T01:04:44.019Z,96.30
2022-09-20T01:07:15.538Z,95.98
2022-09-20T01:09:42.117Z,96.09
2022-09-20T01:12:13.263Z,95.76
2022-09-20T01:14:41.247Z,95.69
2022-09-20T01:17:08.268Z,95.98
2022-09-20T01:19:40.315Z,95.62
2022-09-20T01:22:18.391Z,95.68
2022-09-20T01:24:51.177Z,95.79
2022-09-20T01:27:23.734Z,95.39
2022-09-20T01:30:03.733Z,95.34
2022-09-20T01:32:41.971Z,95.72
2022-09-20T01:35:10.058Z,95.58
2022-09-20T01:37:44.042Z,95.92
2022-09-20T01:40:18.891Z,96.08
2022-09-20T01:42:56.878Z,96.27
2022-09-20T01:45:28.745Z,96.15
2022-09-20T01:48:01.762Z,96.40
2022-09-20T01:50:34.786Z,96.20
2022-09-20T01:53:39.334Z,96.31
2022-09-20T01:56:40.832Z,96.12
2022-09-20T01:59:46.320Z,96.45
2022-09-20T02:02:36.065Z,96.45
2022-09-20T02:05:18.866Z,96.55
2022-09-20T02:08:14.125Z,96.34
2022-09-20T02:11:05.877Z,96.77
2022-09-20T02:13:44.029Z,96.83
2022-09-20T02:16:44.566Z,96.86
2022-09-20T02:19:46.717Z,97.02
2022-09-20T02:22:28.542Z,97.20
2022-09-20T02:25:06.855Z,97.38
2022-09-20T02:27:45.696Z,97.05
2022-09-20T02:30:23.665Z,96.58
2022-09-20T02:33:15.949Z,96.08
2022-09-20T02:35:48.641Z,96.12
2022-09-20T02:38:33.017Z,95.99
2022-09-20T02:41:53.255Z,96.49
2022-09-20T02:44:33.287Z,96.45
2022-09-20T02:47:09.464Z,96.36
2022-09-20T02:49:45.291Z,96.62
2022-09-20T02:52:23.196Z,96.84
2022-09-20T02:55:00.575Z,96.53
2022-09-20T02:57:36.644Z,97.13
2022-09-20T03:00:06.901Z,96.99
2022-09-20T03:02:46.266Z,97.43
2022-09-20T03:05:21.755Z,96.99
2022-09-20T03:08:03.085Z,96.73
2022-09-20T03:10:39.009Z,97.17
2022-09-20T03:13:16.083Z,96.97
2022-09-20T03:15:55.430Z,97.12
2022-09-20T03:18:33.622Z,97.34
2022-09-20T03:21:12.006Z,97.76
2022-09-20T03:23:51.540Z,97.52
2022-09-20T03:26:34.531Z,97.39
2022-09-20T03:29:05.314Z,97.64
2022-09-20T03:31:43.833Z,97.86
2022-09-20T03:34:24.411Z,97.56
2022-09-20T03:37:05.779Z,97.53
2022-09-20T03:39:50.750Z,97.38
2022-09-20T03:42:23.166Z,97.84
2022-09-20T03:45:26.385Z,97.88
2022-09-20T03:48:17.089Z,97.49
2022-09-20T03:51:02.857Z,97.56
2022-09-20T03:54:07.580Z,97.84
2022-09-20T03:57:07.069Z,97.86
2022-09-20T03:59:53.404Z,97.97
2022-09-20T04:02:44.166Z,98.11
2022-09-20T04:05:15.503Z,98.56
2022-09-20T04:07:59.896Z,98.60
2022-09-20T04:10:37.925Z,98.17
2022-09-20T04:13:20.117Z,97.78
2022-09-20T04:16:01.737Z,97.53
2022-09-20T04:18:35.844Z,97.56
2022-09-20T04:21:07.967Z,97.97
2022-09-20T04:23:45.799Z,97.92
2022-09-20T04:26:15.545Z,98.44
2022-09-20T04:28:48.879Z,98.49
2022-09-20T04:31:31.656Z,98.81
2022-09-20T04:34:00.606Z,98.92
2022-09-20T04:36:53.252Z,98.99
2022-09-20T04:39:31.804Z,99.15
2022-09-20T04:42:36.357Z,98.95
2022-09-20T04:45:33.793Z,99.14
2022-09-20T04:48:31.813Z,99.15
2022-09-20T04:51:34.419Z,98.41
2022-09-20T04:54:31.432Z,97.85
2022-09-20T04:57:22.870Z,98.10
2022-09-20T05:00:04.902Z,98.40
2022-09-20T05:02:45.408Z,98.26
2022-09-20T05:05:42.376Z,98.18
2022-09-20T05:08:39.009Z,98.18
2022-09-20T05:11:41.111Z,98.18
2022-09-20T05:14:39.468Z,97.64
2022-09-20T05:17:28.179Z,97.06
2022-09-20T05:20:15.374Z,98.05
2022-09-20T05:23:26.405Z,98.31
2022-09-20T05:26:06.620Z,98.35
2022-09-20T05:28:39.750Z,98.47
2022-09-20T05:31:11.398Z,98.52
2022-09-20T05:33:48.599Z,98.29
2022-09-20T05:36:26.292Z,97.59
2022-09-20T05:39:00.179Z,97.77
2022-09-20T05:41:37.315Z,97.75
2022-09-20T05:44:17.079Z,97.95
2022-09-20T05:46:54.624Z,98.16
2022-09-20T05:49:38.968Z,98.28
2022-09-20T05:52:16.685Z,98.32
2022-09-20T05:54:59.987Z,98.15
2022-09-20T05:57:41.465Z,97.67
2022-09-20T06:00:13.173Z,97.36
2022-09-20T06:02:49.614Z,97.27
2022-09-20T06:05:25.037Z,97.90
2022-09-20T06:08:14.984Z,98.18
2022-09-20T06:10:58.327Z,97.88
2022-09-20T06:13:47.513Z,98.41
2022-09-20T06:16:21.913Z,98.50
2022-09-20T06:19:03.437Z,98.39
2022-09-20T06:21:39.836Z,98.23
2022-09-20T06:24:17.463Z,97.87
2022-09-20T06:26:45.438Z,97.84
2022-09-20T06:29:14.744Z,97.76
2022-09-20T06:31:41.435Z,97.48
2022-09-20T06:34:11.589Z,97.53
2022-09-20T06:36:44.238Z,97.41
2022-09-20T06:39:19.312Z,97.66
2022-09-20T06:41:47.326Z,97.14
2022-09-20T06:44:13.798Z,96.30
2022-09-20T06:46:40.279Z,94.85
2022-09-20T06:49:06.759Z,94.06
2022-09-20T06:51:35.271Z,93.92
2022-09-20T06:54:02.612Z,93.13
2022-09-20T06:56:31.728Z,92.68
2022-09-20T06:58:59.536Z,91.29
2022-09-20T07:01:30.514Z,92.01
2022-09-20T07:03:57.437Z,91.40
2022-09-20T07:06:23.904Z,90.19
2022-09-20T07:08:50.391Z,90.38
2022-09-20T07:11:17.717Z,90.30
2022-09-20T07:13:45.190Z,89.85
2022-09-20T07:16:14.373Z,88.16
2022-09-20T07:18:42.381Z,87.63
2022-09-20T07:21:10.819Z,85.33
2022-09-20T07:23:37.314Z,87.29
2022-09-20T07:26:03.983Z,87.53
2022-09-20T07:28:32.626Z,87.42
2022-09-20T07:30:59.120Z,85.72
2022-09-20T07:33:27.119Z,85.30
2022-09-20T07:35:54.805Z,85.40
2022-09-20T07:38:22.409Z,85.70
2022-09-20T07:40:54.925Z,86.33
2022-09-20T07:43:21.432Z,84.60
2022-09-20T07:45:50.439Z,85.28
2022-09-20T07:48:16.949Z,85.55
2022-09-20T07:50:51.828Z,83.62
2022-09-20T07:53:18.375Z,83.23
2022-09-20T07:55:56.390Z,81.05
2022-09-20T07:58:22.857Z,80.03
2022-09-20T08:00:52.267Z,77.83
2022-09-20T08:03:18.762Z,79.45
2022-09-20T08:05:45.255Z,80.26
2022-09-20T08:08:13.053Z,80.67
2022-09-20T08:10:39.548Z,79.78
2022-09-20T08:16:01.151Z,80.97
2022-09-20T08:18:27.629Z,81.10
2022-09-20T08:20:54.119Z,81.47
2022-09-20T08:23:23.781Z,83.19
2022-09-20T08:25:50.681Z,83.57
2022-09-20T08:28:17.157Z,81.63
2022-09-20T08:30:43.649Z,77.69
2022-09-20T08:33:10.111Z,78.39
2022-09-20T08:35:38.072Z,75.23
2022-09-20T08:40:53.212Z,76.01
2022-09-20T08:43:22.256Z,76.23
2022-09-20T08:45:49.259Z,76.92
2022-09-20T08:48:17.570Z,75.29
2022-09-20T08:50:44.075Z,75.73
2022-09-20T08:53:14.944Z,75.46
2022-09-20T08:55:42.580Z,76.53
2022-09-20T08:58:11.996Z,75.59
2022-09-20T09:00:46.358Z,74.78
2022-09-20T09:03:15.365Z,74.17
2022-09-20T09:05:45.115Z,74.22
2022-09-20T09:08:14.622Z,75.81
2022-09-20T09:10:44.103Z,75.39
2022-09-20T09:13:21.755Z,76.27
2022-09-20T09:15:54.289Z,76.59
2022-09-20T09:18:20.796Z,77.08
2022-09-20T09:20:47.718Z,75.92
2022-09-20T09:23:22.964Z,73.60
2022-09-20T09:25:49.538Z,73.90
2022-09-20T09:28:22.393Z,71.80
2022-09-20T09:30:48.900Z,70.70
2022-09-20T09:33:23.250Z,70.81
2022-09-20T09:35:55.585Z,71.13
2022-09-20T09:38:24.034Z,71.43
2022-09-20T09:40:52.284Z,69.91
2022-09-20T09:43:22.909Z,72.33
2022-09-20T09:45:49.922Z,71.49
2022-09-20T09:48:23.343Z,68.97
2022-09-20T09:50:50.765Z,69.14
2022-09-20T09:53:21.860Z,67.74
2022-09-20T09:56:19.257Z,66.31
2022-09-20T09:59:01.131Z,65.98
2022-09-20T10:01:36.109Z,69.04
2022-09-20T10:04:12.256Z,67.62
2022-09-20T10:06:52.242Z,68.41
2022-09-20T10:09:33.131Z,67.17
2022-09-20T10:12:21.034Z,66.94
2022-09-20T10:15:00.286Z,66.04
2022-09-20T10:17:49.808Z,66.14
2022-09-20T10:20:31.432Z,64.87
2022-09-20T10:23:39.423Z,67.09
2022-09-20T10:26:01.237Z,67.14
2022-09-20T10:28:41.909Z,68.72
2022-09-20T10:31:20.155Z,69.04
2022-09-20T10:33:59.079Z,69.36
2022-09-20T10:36:32.225Z,67.75
2022-09-20T10:39:09.497Z,68.81
2022-09-20T10:41:49.848Z,65.66
2022-09-20T10:44:34.556Z,66.20
2022-09-20T10:47:09.315Z,66.35
2022-09-20T10:49:41.169Z,66.00
2022-09-20T10:52:27.682Z,64.58
2022-09-20T10:55:04.426Z,65.53
2022-09-20T10:58:04.128Z,61.91
2022-09-20T11:00:42.167Z,63.38
2022-09-20T11:03:27.126Z,62.04
2022-09-20T11:06:09.496Z,62.32
2022-09-20T11:08:39.708Z,62.64
2022-09-20T11:11:11.617Z,62.05
2022-09-20T11:13:40.542Z,61.19
2022-09-20T11:16:14.223Z,61.64
2022-09-20T11:18:52.816Z,61.90
2022-09-20T11:21:25.495Z,60.96
2022-09-20T11:23:58.007Z,60.87
2022-09-20T11:26:31.899Z,60.81
2022-09-20T11:29:05.457Z,61.65
2022-09-20T11:31:38.266Z,62.57
2022-09-20T11:34:14.251Z,62.41
2022-09-20T11:36:47.910Z,61.42
2022-09-20T11:39:18.077Z,61.68
2022-09-20T11:41:46.360Z,67.78
2022-09-20T11:44:16.682Z,73.45
2022-09-20T11:46:49.746Z,75.57
2022-09-20T11:49:23.157Z,78.61
2022-09-20T11:52:20.741Z,81.98
2022-09-20T11:55:17.967Z,83.04
2022-09-20T11:57:44.660Z,82.34
2022-09-20T12:00:11.879Z,83.51
2022-09-20T12:02:47.535Z,83.43
2022-09-20T12:05:29.976Z,82.29
2022-09-20T12:07:59.546Z,80.59
2022-09-20T12:10:27.766Z,82.75
2022-09-20T12:12:59.936Z,81.34
2022-09-20T12:15:29.380Z,80.53
2022-09-20T12:18:11.860Z,78.57
2022-09-20T12:21:00.749Z,75.85
2022-09-20T12:24:24.236Z,74.92
2022-09-20T12:26:53.727Z,73.65
2022-09-20T12:29:52.389Z,78.39
2022-09-20T12:32:50.547Z,72.72
2022-09-20T12:35:56.631Z,73.81
2022-09-20T12:38:39.503Z,73.88
2022-09-20T12:41:11.733Z,73.19
2022-09-20T12:43:48.885Z,73.05
2022-09-20T12:46:25.329Z,74.60
2022-09-20T12:49:10.031Z,75.11
2022-09-20T12:51:36.600Z,76.33
2022-09-20T12:54:07.405Z,78.74
2022-09-20T12:56:36.363Z,78.96
2022-09-20T12:59:06.248Z,76.93
2022-09-20T13:01:36.636Z,78.82
2022-09-20T13:04:49.169Z,77.94
2022-09-20T13:07:45.387Z,78.59
2022-09-20T13:10:27.837Z,79.87
2022-09-20T13:13:00.423Z,80.61
2022-09-20T13:15:27.413Z,80.20
2022-09-20T13:17:56.332Z,78.41
2022-09-20T13:20:25.871Z,76.84
2022-09-20T13:22:56.027Z,80.09
2022-09-20T13:25:28.336Z,77.86
2022-09-20T13:28:05.605Z,75.36
2022-09-20T13:30:32.361Z,75.98
2022-09-20T13:33:20.853Z,77.28
2022-09-20T13:35:50.928Z,77.73
2022-09-20T13:38:19.017Z,75.29
2022-09-20T13:40:47.881Z,73.15
2022-09-20T13:43:25.241Z,73.40
2022-09-20T13:45:53.661Z,72.97
2022-09-20T13:48:24.480Z,73.33
2022-09-20T13:50:53.655Z,72.61
2022-09-20T13:53:40.019Z,72.77
2022-09-20T13:56:11.520Z,70.89
2022-09-20T13:58:38.204Z,71.25
2022-09-20T14:01:07.231Z,70.74
2022-09-20T14:03:35.869Z,69.84
2022-09-20T14:06:07.051Z,68.98
2022-09-20T14:08:38.367Z,68.79
2022-09-20T14:11:07.274Z,67.73
2022-09-20T14:13:39.565Z,68.08
2022-09-20T14:16:07.224Z,68.75
2022-09-20T14:18:34.518Z,67.44
2022-09-20T14:21:01.945Z,65.99
2022-09-20T14:23:30.387Z,64.78
2022-09-20T14:26:07.542Z,63.86
2022-09-20T14:28:34.171Z,63.15
2022-09-20T14:31:08.745Z,64.04
2022-09-20T14:33:42.250Z,64.67
2022-09-20T14:36:14.010Z,66.08
2022-09-20T14:38:44.328Z,67.24
2022-09-20T14:41:11.464Z,69.07
2022-09-20T14:43:38.263Z,69.22
2022-09-20T14:46:12.996Z,68.70
2022-09-20T14:48:40.207Z,67.85
2022-09-20T14:51:23.855Z,67.97
2022-09-20T14:53:52.011Z,65.77
2022-09-20T14:56:30.812Z,66.56
2022-09-20T14:59:23.083Z,65.15
2022-09-20T15:02:00.663Z,62.29
2022-09-20T15:04:27.728Z,64.01
2022-09-20T15:06:56.164Z,63.04
2022-09-20T15:09:22.926Z,64.69
2022-09-20T15:11:59.796Z,67.64
2022-09-20T15:14:26.520Z,68.00
2022-09-20T15:16:53.072Z,69.32
2022-09-20T15:19:20.917Z,72.32
2022-09-20T15:21:47.455Z,74.83
2022-09-20T15:24:13.959Z,78.02
2022-09-20T15:26:40.496Z,79.00
2022-09-20T15:29:07.001Z,80.37
2022-09-20T15:31:33.609Z,79.63
2022-09-20T15:34:00.112Z,79.77
2022-09-20T15:36:27.980Z,80.94
2022-09-20T15:38:54.460Z,81.83
2022-09-20T15:41:20.974Z,83.51
2022-09-20T15:43:47.475Z,84.05
2022-09-20T15:46:18.176Z,83.98
2022-09-20T15:48:44.672Z,84.60
2022-09-20T15:51:12.329Z,86.58
2022-09-20T15:53:42.022Z,87.05
2022-09-20T15:56:15.370Z,86.80
2022-09-20T15:58:44.647Z,86.21
2022-09-20T16:01:11.250Z,85.58
2022-09-20T16:03:37.781Z,84.54
2022-09-20T16:06:06.472Z,86.05
2022-09-20T16:08:33.558Z,86.47
2022-09-20T16:11:01.926Z,85.48
2022-09-20T16:13:28.883Z,84.82
2022-09-20T16:15:56.260Z,84.14
2022-09-20T16:18:23.145Z,83.97
2022-09-20T16:20:49.702Z,83.79
2022-09-20T16:23:16.198Z,83.11
2022-09-20T16:25:42.715Z,83.59
2022-09-20T16:28:10.564Z,83.68
2022-09-20T16:30:37.072Z,83.66
2022-09-20T16:33:03.588Z,84.07
2022-09-20T16:35:30.117Z,84.35
2022-09-20T16:37:56.662Z,84.85
2022-09-20T16:40:23.279Z,85.79
2022-09-20T16:42:52.328Z,86.60
2022-09-20T16:45:20.373Z,87.29
2022-09-20T16:47:46.855Z,88.39
2022-09-20T16:50:13.544Z,88.24
2022-09-20T16:52:40.065Z,88.59
2022-09-20T16:55:08.421Z,87.72
2022-09-20T16:57:34.936Z,87.58
2022-09-20T17:00:01.943Z,87.45
2022-09-20T17:02:29.790Z,87.41
2022-09-20T17:04:56.364Z,87.78
2022-09-20T17:07:22.888Z,87.45
2022-09-20T17:09:49.504Z,86.73
2022-09-20T17:12:16.044Z,87.00
2022-09-20T17:14:42.542Z,86.93
2022-09-20T17:17:09.051Z,87.30
2022-09-20T17:19:36.917Z,87.54
2022-09-20T17:22:03.459Z,87.90
2022-09-20T17:24:29.959Z,88.11
2022-09-20T17:26:56.519Z,88.45
2022-09-20T17:29:23.016Z,88.66
2022-09-20T17:31:55.237Z,88.23
2022-09-20T17:34:23.034Z,89.21
2022-09-20T17:36:51.001Z,89.44
2022-09-20T17:39:18.122Z,89.63
2022-09-20T17:41:46.580Z,89.38
2022-09-20T17:44:13.930Z,89.50
2022-09-20T17:46:42.434Z,89.82
2022-09-20T17:49:10.875Z,90.44
2022-09-20T17:51:39.049Z,90.29
2022-09-20T17:54:07.338Z,90.29
2022-09-20T17:56:34.849Z,91.00
2022-09-20T17:59:03.547Z,91.08
2022-09-20T18:01:31.716Z,91.11
2022-09-20T18:04:00.412Z,91.12
2022-09-20T18:06:28.650Z,91.68
2022-09-20T18:08:57.032Z,91.86
2022-09-20T18:11:29.161Z,92.00
2022-09-20T18:13:55.775Z,92.17
2022-09-20T18:16:22.532Z,92.22
2022-09-20T18:18:49.318Z,92.41
2022-09-20T18:21:18.258Z,92.23
2022-09-20T18:23:46.081Z,92.34
2022-09-20T18:26:14.833Z,92.50
2022-09-20T18:28:45.885Z,92.78
2022-09-20T18:31:14.869Z,93.19
2022-09-20T18:33:41.418Z,93.00
2022-09-20T18:36:08.144Z,93.17
2022-09-20T18:38:34.679Z,93.03
2022-09-20T18:41:02.431Z,93.02
2022-09-20T18:43:30.721Z,93.19
2022-09-20T18:45:59.023Z,93.34
2022-09-20T18:48:26.921Z,93.18
2022-09-20T18:51:00.861Z,92.99
2022-09-20T18:53:28.809Z,93.87
2022-09-20T18:55:56.223Z,93.25
2022-09-20T18:58:24.233Z,93.40
2022-09-20T19:01:03.312Z,93.64
2022-09-20T19:03:46.763Z,93.42
2022-09-20T19:06:15.887Z,93.46
2022-09-20T19:08:51.660Z,93.87
2022-09-20T19:11:28.622Z,94.01
2022-09-20T19:13:59.892Z,94.51
2022-09-20T19:16:33.183Z,94.66
2022-09-20T19:19:14.319Z,94.27
2022-09-20T19:21:51.995Z,94.29
2022-09-20T19:24:31.566Z,94.50
2022-09-20T19:26:58.408Z,94.70
2022-09-20T19:29:26.896Z,94.51
2022-09-20T19:31:57.011Z,94.64
2022-09-20T19:34:25.307Z,94.64
2022-09-20T19:37:06.680Z,94.58
2022-09-20T19:39:52.058Z,94.60
2022-09-20T19:42:28.119Z,95.13
2022-09-20T19:45:03.625Z,94.83
2022-09-20T19:47:41.770Z,94.33
2022-09-20T19:50:14.134Z,93.79
2022-09-20T19:52:41.140Z,93.56
2022-09-20T19:55:11.227Z,93.82
2022-09-20T19:57:42.882Z,93.40
2022-09-20T20:00:12.151Z,93.64
2022-09-20T20:02:40.900Z,93.77
2022-09-20T20:05:11.048Z,93.89
2022-09-20T20:07:43.992Z,93.66
2022-09-20T20:10:18.908Z,94.11
2022-09-20T20:12:52.854Z,94.24
2022-09-20T20:15:34.341Z,93.96
2022-09-20T20:18:06.732Z,93.74
2022-09-20T20:20:38.653Z,94.06
2022-09-20T20:23:27.805Z,94.35
2022-09-20T20:26:00.031Z,94.58
2022-09-20T20:28:26.604Z,94.40
2022-09-20T20:30:56.605Z,94.35
2022-09-20T20:33:28.154Z,94.08
2022-09-20T20:35:55.829Z,94.52
2022-09-20T20:38:22.685Z,94.79
2022-09-20T20:40:57.825Z,94.15
2022-09-20T20:43:24.340Z,94.28
2022-09-20T20:45:51.020Z,94.51
2022-09-20T20:48:17.507Z,94.79
2022-09-20T20:50:45.356Z,94.74
2022-09-20T20:53:11.845Z,94.88
2022-09-20T20:55:38.522Z,95.09
2022-09-20T20:58:05.000Z,95.40
2022-09-20T21:00:31.494Z,94.92
2022-09-20T21:02:58.507Z,94.95
2022-09-20T21:05:25.284Z,95.03
2022-09-20T21:07:53.692Z,94.92
2022-09-20T21:10:20.932Z,94.74
2022-09-20T21:12:48.045Z,94.36
2022-09-20T21:15:14.769Z,94.48
2022-09-20T21:17:50.462Z,94.16
2022-09-20T21:20:16.994Z,94.35
2022-09-20T21:22:43.481Z,94.98
2022-09-20T21:25:11.339Z,95.51
2022-09-20T21:27:37.805Z,95.23
2022-09-20T21:30:04.994Z,95.13
2022-09-20T21:32:31.494Z,94.76
2022-09-20T21:34:58.015Z,95.11
2022-09-20T21:37:24.555Z,94.91
2022-09-20T21:39:51.064Z,94.69
2022-09-20T21:42:18.897Z,94.17
2022-09-20T21:44:45.455Z,93.90
2022-09-20T21:47:12.045Z,94.39
2022-09-20T21:49:38.544Z,94.93
2022-09-20T21:52:05.153Z,95.08
2022-09-20T21:54:31.668Z,95.42
2022-09-20T21:56:58.180Z,95.70
2022-09-20T21:59:26.066Z,95.56
2022-09-20T22:01:52.636Z,95.43
2022-09-20T22:04:19.151Z,94.98
2022-09-20T22:06:45.911Z,94.80
2022-09-20T22:09:14.862Z,94.95
2022-09-20T22:11:44.584Z,94.81
2022-09-20T22:14:11.964Z,95.20
2022-09-20T22:16:41.538Z,94.78
2022-09-20T22:19:09.834Z,94.68
2022-09-20T22:21:37.805Z,94.95
2022-09-20T22:24:06.601Z,95.05
2022-09-20T22:26:34.796Z,94.55
2022-09-20T22:29:01.867Z,94.70
2022-09-20T22:31:29.892Z,94.69
2022-09-20T22:34:00.147Z,94.61
2022-09-20T22:36:29.494Z,94.63
2022-09-20T22:38:56.211Z,94.86
2022-09-20T22:41:23.453Z,94.81
2022-09-20T22:43:50.424Z,94.67
2022-09-20T22:46:19.289Z,94.76
2022-09-20T22:48:46.476Z,94.87
2022-09-20T22:51:16.267Z,94.87
2022-09-20T22:53:43.469Z,95.10
2022-09-20T22:56:12.960Z,94.98
2022-09-20T22:58:40.986Z,94.90
2022-09-20T23:01:10.379Z,94.53
2022-09-20T23:03:37.625Z,94.33
2022-09-20T23:06:04.720Z,94.03
2022-09-20T23:08:32.929Z,94.13
2022-09-20T23:11:01.011Z,93.76
2022-09-20T23:13:27.568Z,94.08
2022-09-20T23:15:54.077Z,93.69
2022-09-20T23:18:20.640Z,93.59
2022-09-20T23:20:47.209Z,93.82
2022-09-20T23:23:13.707Z,94.06
2022-09-20T23:25:41.569Z,94.17
2022-09-20T23:28:08.036Z,93.96
2022-09-20T23:30:34.597Z,93.45
2022-09-20T23:33:01.112Z,93.71
2022-09-20T23:35:27.616Z,93.61
2022-09-20T23:37:55.925Z,93.80
2022-09-20T23:40:22.531Z,93.49
2022-09-20T23:42:50.405Z,93.33
2022-09-20T23:45:16.916Z,93.40
2022-09-20T23:47:47.398Z,92.92
2022-09-20T23:50:14.040Z,92.92
2022-09-20T23:52:40.534Z,92.98
2022-09-20T23:55:07.736Z,92.60
2022-09-20T23:57:34.209Z,92.77
